Time;durP1;ratioP1;P1;durP2;ratioP2;P2;SDS_P1;SDS_P2;PMS_P1;PMS_P2;Temp;Humidity;BMP_temperature;BMP_pressure;BME280_temperature;BME280_humidity;BME280_pressure;Samples;Min_cycle;Max_cycle;Signal;HPM_P1;HPM_P2
2022/04/04 00:08:35;;;;;;;10.10;5.40;;;;;;;5.26;98.96;99551.44;31223901;28;20781;-81
2022/04/04 00:23:37;;;;;;;9.03;5.70;;;;;;;5.23;100.00;99544.16;31203623;28;20056;-79
2022/04/04 00:38:40;;;;;;;9.70;5.07;;;;;;;5.18;100.00;99580.34;31201504;28;20049;-80
2022/04/04 00:53:42;;;;;;;9.43;6.43;;;;;;;5.13;100.00;99594.22;31203573;28;20107;-80
2022/04/04 01:08:47;;;;;;;10.67;7.00;;;;;;;5.04;100.00;99602.72;31199196;28;20497;-72
2022/04/04 01:23:50;;;;;;;11.57;7.07;;;;;;;4.98;100.00;99608.88;31137312;28;20072;-71
2022/04/04 01:38:52;;;;;;;10.73;6.03;;;;;;;4.95;100.00;99609.69;31145819;28;20108;-72
2022/04/04 01:53:55;;;;;;;10.57;6.37;;;;;;;4.87;100.00;99625.09;31149328;28;20045;-71
2022/04/04 02:08:57;;;;;;;9.17;5.93;;;;;;;4.79;100.00;99626.25;31138555;28;20114;-72
2022/04/04 02:23:59;;;;;;;9.13;5.57;;;;;;;4.67;100.00;99638.22;31141585;28;20054;-72
2022/04/04 02:39:01;;;;;;;12.37;6.30;;;;;;;4.54;100.00;99660.53;31144488;28;20056;-80
2022/04/04 02:54:03;;;;;;;9.00;5.00;;;;;;;4.26;96.86;99677.44;31196210;28;20051;-71
2022/04/04 03:09:05;;;;;;;56.50;24.43;;;;;;;4.25;98.44;99721.63;31144384;28;20049;-72
2022/04/04 03:24:07;;;;;;;6.97;4.30;;;;;;;4.23;97.49;99738.13;31134259;28;20061;-71
2022/04/04 03:39:12;;;;;;;7.20;4.63;;;;;;;4.11;98.76;99741.19;31128623;28;20048;-73
2022/04/04 03:54:15;;;;;;;5.67;4.13;;;;;;;4.05;97.94;99769.56;31133293;28;20176;-71
2022/04/04 04:09:17;;;;;;;8.23;4.03;;;;;;;4.04;97.14;99805.63;31143703;28;20057;-73
2022/04/04 04:24:19;;;;;;;4.37;3.03;;;;;;;4.09;97.62;99829.44;31130776;28;22157;-72
2022/04/04 04:39:22;;;;;;;4.33;2.77;;;;;;;3.98;97.04;99860.88;31131037;28;20143;-72
2022/04/04 04:54:26;;;;;;;6.83;4.40;;;;;;;3.86;96.01;99871.97;31139816;28;21401;-72
2022/04/04 05:09:28;;;;;;;5.70;3.60;;;;;;;3.81;94.47;99897.25;31150877;28;20053;-72
2022/04/04 05:24:30;;;;;;;6.10;3.57;;;;;;;3.85;93.04;99921.44;31151345;28;20053;-71
2022/04/04 05:39:32;;;;;;;7.43;4.63;;;;;;;3.49;90.06;99939.28;31198649;28;20049;-71
2022/04/04 05:54:35;;;;;;;5.63;4.07;;;;;;;4.15;87.60;99959.56;31212495;28;20045;-71
2022/04/04 06:09:37;;;;;;;5.50;3.40;;;;;;;5.85;78.15;99979.69;31208449;28;20522;-72
2022/04/04 06:24:39;;;;;;;6.30;3.90;;;;;;;4.81;86.40;100013.91;31194198;28;20053;-72
2022/04/04 06:39:41;;;;;;;5.40;4.10;;;;;;;5.11;81.63;100017.03;31205455;28;20555;-73
2022/04/04 06:54:43;;;;;;;6.83;4.47;;;;;;;5.02;81.01;100040.84;31196219;28;20053;-72
2022/04/04 07:09:45;;;;;;;6.93;4.00;;;;;;;5.58;84.71;100066.28;31194219;28;20064;-72
2022/04/04 07:24:48;;;;;;;7.67;4.70;;;;;;;5.01;81.53;100079.66;31188989;28;20555;-77
2022/04/04 07:39:50;;;;;;;6.80;4.03;;;;;;;5.32;77.28;100123.94;31211247;28;20068;-78
2022/04/04 07:54:53;;;;;;;5.93;4.13;;;;;;;5.32;77.87;100139.34;31199698;28;20080;-76
2022/04/04 08:09:55;;;;;;;5.67;4.00;;;;;;;5.19;79.83;100151.63;31191979;28;20053;-80
2022/04/04 08:24:58;;;;;;;5.90;3.73;;;;;;;5.27;78.94;100159.31;31196758;28;20408;-76
2022/04/04 08:40:00;;;;;;;7.30;4.03;;;;;;;5.26;73.72;100162.38;31217289;28;20043;-76
2022/04/04 08:55:02;;;;;;;5.20;4.37;;;;;;;5.13;78.20;100186.97;31236654;28;20111;-72
2022/04/04 09:10:12;;;;;;;5.67;3.53;;;;;;;4.96;74.56;100187.63;31224301;28;20120;-83
2022/04/04 09:25:14;;;;;;;7.00;4.20;;;;;;;6.38;71.12;100187.13;31217952;28;20049;-79
2022/04/04 09:40:23;;;;;;;5.73;3.83;;;;;;;6.92;62.90;100199.34;31220103;28;20069;-69
2022/04/04 09:55:33;;;;;;;6.83;4.37;;;;;;;6.66;70.41;100202.50;31231775;28;20053;-71
2022/04/04 10:10:36;;;;;;;5.53;3.73;;;;;;;8.19;62.83;100207.88;31212766;28;20210;-71
2022/04/04 10:25:39;;;;;;;6.57;4.00;;;;;;;7.10;63.30;100216.22;31216736;28;20099;-70
2022/04/04 10:40:42;;;;;;;5.87;4.10;;;;;;;7.03;67.75;100227.06;31213731;28;20049;-70
2022/04/04 10:55:48;;;;;;;4.57;3.33;;;;;;;7.17;66.34;100229.72;31252792;28;20053;-85
2022/04/04 11:10:53;;;;;;;6.40;4.10;;;;;;;7.67;60.00;100226.78;31259786;28;20552;-83
2022/04/04 11:25:55;;;;;;;50.00;20.87;;;;;;;7.65;62.36;100242.59;31223944;28;20053;-77
2022/04/04 11:40:57;;;;;;;25.63;11.63;;;;;;;7.47;62.82;100245.41;31213698;28;20049;-69
2022/04/04 11:56:03;;;;;;;10.10;5.97;;;;;;;7.63;58.43;100247.63;31230850;28;20041;-78
2022/04/04 12:11:05;;;;;;;;;;;;;;;8.27;50.57;100241.06;31234545;28;20054;-81
2022/04/04 12:26:10;;;;;;;8.50;4.87;;;;;;;7.84;53.70;100247.50;31177243;28;20420;-70
2022/04/04 12:41:15;;;;;;;6.47;4.30;;;;;;;7.89;51.59;100238.22;31184312;28;20149;-70
2022/04/04 12:56:17;;;;;;;6.00;3.93;;;;;;;7.55;54.03;100243.44;31185381;28;20061;-78
2022/04/04 13:11:20;;;;;;;7.40;4.40;;;;;;;7.78;57.27;100243.72;31183261;28;20081;-74
2022/04/04 13:26:22;;;;;;;10.07;3.40;;;;;;;7.61;53.11;100238.38;31188854;28;20069;-77
2022/04/04 13:41:27;;;;;;;7.73;4.90;;;;;;;7.65;58.76;100239.13;31240642;28;21284;-70
2022/04/04 13:56:31;;;;;;;8.87;4.90;;;;;;;7.57;56.11;100222.19;31202653;28;20054;-72
2022/04/04 14:11:35;;;;;;;5.47;3.90;;;;;;;7.49;55.66;100215.31;31205410;28;20053;-80
2022/04/04 14:26:37;;;;;;;6.77;4.63;;;;;;;7.42;51.27;100231.53;31210205;28;20493;-76
2022/04/04 14:41:40;;;;;;;7.97;4.17;;;;;;;7.27;54.32;100227.38;31157315;28;20131;-68
2022/04/04 14:56:43;;;;;;;16.37;8.00;;;;;;;7.22;54.27;100243.97;31108352;28;20052;-77
2022/04/04 15:11:45;;;;;;;4.67;3.07;;;;;;;7.03;59.28;100248.66;31163770;28;21290;-75
2022/04/04 15:26:48;;;;;;;7.37;4.53;;;;;;;6.96;59.21;100254.06;31096308;28;20853;-76
2022/04/04 15:41:56;;;;;;;10.57;4.70;;;;;;;6.80;54.82;100251.81;31164438;28;20041;-77
2022/04/04 15:56:59;;;;;;;5.93;4.30;;;;;;;6.44;60.10;100259.16;31099476;28;20077;-80
2022/04/04 16:12:01;;;;;;;7.57;4.43;;;;;;;6.15;62.16;100271.09;31115044;28;20941;-74
2022/04/04 16:27:07;;;;;;;6.47;4.40;;;;;;;5.96;63.55;100285.69;31105153;28;20064;-77
2022/04/04 16:42:11;;;;;;;6.50;4.27;;;;;;;5.62;63.32;100293.28;31117471;28;20277;-70
2022/04/04 16:57:13;;;;;;;8.67;5.60;;;;;;;5.40;62.06;100307.81;31166074;28;20099;-79
2022/04/04 17:12:16;;;;;;;9.07;5.07;;;;;;;5.24;64.13;100326.16;31275700;28;20061;-79
2022/04/04 17:27:19;;;;;;;15.67;8.57;;;;;;;4.95;65.20;100342.16;31252153;28;20444;-70
2022/04/04 17:42:21;;;;;;;13.40;7.80;;;;;;;4.70;68.52;100357.34;31255548;28;20049;-71
2022/04/04 17:57:23;;;;;;;13.17;7.90;;;;;;;4.60;67.93;100358.00;31233640;28;20061;-69
2022/04/04 18:12:25;;;;;;;10.80;6.90;;;;;;;4.62;66.86;100361.09;31222044;28;20447;-70
2022/04/04 18:27:28;;;;;;;10.67;6.47;;;;;;;4.39;64.87;100354.00;31214330;28;20572;-71
2022/04/04 18:42:30;;;;;;;14.63;7.57;;;;;;;4.37;68.45;100345.53;31186270;28;20059;-73
2022/04/04 18:57:32;;;;;;;15.47;8.30;;;;;;;4.17;70.05;100344.19;31206035;28;20088;-73
2022/04/04 19:12:35;;;;;;;17.07;8.67;;;;;;;4.16;68.17;100344.53;31198113;28;20429;-74
2022/04/04 19:27:37;;;;;;;22.07;9.20;;;;;;;4.08;71.63;100332.94;31202883;28;20049;-74
2022/04/04 19:42:40;;;;;;;16.10;7.97;;;;;;;4.02;69.85;100329.03;31208260;28;20045;-74
2022/04/04 19:57:42;;;;;;;20.50;7.87;;;;;;;4.02;71.18;100324.44;31171548;28;20073;-75
2022/04/04 20:12:44;;;;;;;19.43;8.77;;;;;;;4.02;72.08;100329.03;31211040;28;20049;-75
2022/04/04 20:27:50;;;;;;;16.97;8.63;;;;;;;3.86;71.65;100336.53;31182711;28;20076;-74
2022/04/04 20:42:52;;;;;;;21.77;9.87;;;;;;;3.81;72.46;100331.50;31188959;28;20053;-75
2022/04/04 20:57:58;;;;;;;17.93;9.60;;;;;;;3.68;73.98;100334.44;31200236;28;20436;-81
2022/04/04 21:13:09;;;;;;;19.95;9.85;;;;;;;3.71;73.15;100339.09;31216389;28;20045;-82
2022/04/04 21:28:20;;;;;;;20.40;11.40;;;;;;;3.70;74.96;100339.44;31213095;28;20053;-80
2022/04/04 21:43:25;;;;;;;22.40;9.70;;;;;;;3.78;76.73;100327.63;31200035;28;20057;-81
2022/04/04 21:58:28;;;;;;;14.40;9.10;;;;;;;3.81;76.17;100318.06;31221508;28;20485;-81
2022/04/04 22:13:36;;;;;;;23.80;10.30;;;;;;;3.68;77.19;100323.69;31197209;28;20100;-81
2022/04/04 22:28:38;;;;;;;22.17;9.50;;;;;;;3.73;79.51;100309.94;31188993;28;20049;-80
2022/04/04 22:43:40;;;;;;;16.40;8.90;;;;;;;3.55;77.88;100306.28;31207766;28;20056;-76
2022/04/04 22:58:42;;;;;;;21.13;10.00;;;;;;;3.49;77.30;100297.00;31136766;28;20567;-73
2022/04/04 23:13:44;;;;;;;17.83;10.03;;;;;;;3.25;79.74;100292.88;31150801;28;20126;-73
2022/04/04 23:28:46;;;;;;;19.43;9.03;;;;;;;3.08;80.56;100286.13;31146256;28;20479;-73
2022/04/04 23:43:48;;;;;;;13.60;8.10;;;;;;;3.10;81.04;100285.75;31156072;28;20106;-74
2022/04/04 23:58:50;;;;;;;19.27;10.23;;;;;;;2.84;84.35;100277.72;31138822;28;20053;-74
